Time;durP1;ratioP1;P1;durP2;ratioP2;P2;SDS_P1;SDS_P2;PMS_P1;PMS_P2;Temp;Humidity;BMP_temperature;BMP_pressure;BME280_temperature;BME280_humidity;BME280_pressure;Samples;Min_cycle;Max_cycle;Signal;HPM_P1;HPM_P2
2022/07/09 00:01:46;;;;;;;3.97;2.28;;;;;;;;;;5062206;28;20509;-84
2022/07/09 00:04:13;;;;;;;2.58;2.38;;;;;;;;;;5060520;28;20491;-85
2022/07/09 00:06:41;;;;;;;2.47;2.10;;;;;;;;;;5059934;28;20107;-84
2022/07/09 00:09:08;;;;;;;4.10;1.95;;;;;;;;;;5060654;28;20056;-84
2022/07/09 00:11:35;;;;;;;3.25;2.60;;;;;;;;;;5057474;28;20044;-84
2022/07/09 00:14:02;;;;;;;2.85;2.42;;;;;;;;;;5057875;28;20076;-84
2022/07/09 00:16:29;;;;;;;2.72;2.45;;;;;;;;;;5057406;28;20044;-85
2022/07/09 00:18:57;;;;;;;3.50;2.40;;;;;;;;;;5057355;28;20111;-84
2022/07/09 00:21:24;;;;;;;2.90;2.40;;;;;;;;;;5057823;28;20048;-84
2022/07/09 00:23:51;;;;;;;2.78;2.33;;;;;;;;;;5058033;28;20041;-83
2022/07/09 00:26:18;;;;;;;2.55;2.28;;;;;;;;;;5059283;28;20041;-83
2022/07/09 00:28:45;;;;;;;2.72;2.22;;;;;;;;;;5057379;28;20251;-84
2022/07/09 00:31:13;;;;;;;4.40;2.60;;;;;;;;;;5057258;28;20084;-84
2022/07/09 00:33:40;;;;;;;2.40;2.30;;;;;;;;;;5058368;28;20057;-83
2022/07/09 00:36:07;;;;;;;2.92;2.58;;;;;;;;;;5057312;28;20053;-84
2022/07/09 00:38:34;;;;;;;3.60;2.47;;;;;;;;;;5056873;28;20107;-84
2022/07/09 00:41:03;;;;;;;4.85;2.63;;;;;;;;;;5057359;28;20076;-84
2022/07/09 00:43:30;;;;;;;8.30;3.25;;;;;;;;;;5058401;28;20044;-84
2022/07/09 00:45:58;;;;;;;4.38;2.80;;;;;;;;;;5057512;28;20053;-84
2022/07/09 00:48:25;;;;;;;3.40;3.08;;;;;;;;;;5057529;28;20081;-84
2022/07/09 00:50:54;;;;;;;6.45;2.83;;;;;;;;;;5058822;28;20045;-84
2022/07/09 00:53:24;;;;;;;6.07;3.13;;;;;;;;;;5057101;28;20103;-84
2022/07/09 00:55:52;;;;;;;4.57;2.95;;;;;;;;;;5056683;28;20053;-84
2022/07/09 00:58:20;;;;;;;3.60;2.92;;;;;;;;;;5058340;28;20077;-84
2022/07/09 01:00:47;;;;;;;4.45;3.20;;;;;;;;;;5056874;28;20053;-83
2022/07/09 01:03:14;;;;;;;3.50;2.80;;;;;;;;;;5058586;28;20068;-84
2022/07/09 01:05:42;;;;;;;5.10;2.97;;;;;;;;;;5057585;28;20397;-84
2022/07/09 01:08:09;;;;;;;6.88;3.10;;;;;;;;;;5057293;28;20055;-84
2022/07/09 01:10:36;;;;;;;3.38;3.08;;;;;;;;;;5055714;28;20469;-84
2022/07/09 01:13:05;;;;;;;7.60;3.25;;;;;;;;;;5056271;28;20103;-84
2022/07/09 01:15:33;;;;;;;8.07;3.20;;;;;;;;;;5057668;28;20490;-84
2022/07/09 01:18:00;;;;;;;3.53;3.17;;;;;;;;;;5055708;28;20045;-84
2022/07/09 01:20:31;;;;;;;3.60;3.00;;;;;;;;;;5055407;28;20052;-84
2022/07/09 01:22:59;;;;;;;3.65;3.08;;;;;;;;;;5056306;28;20049;-83
2022/07/09 01:25:35;;;;;;;4.60;3.00;;;;;;;;;;5058124;28;20067;-83
2022/07/09 01:28:05;;;;;;;3.03;2.85;;;;;;;;;;5054741;28;20510;-83
2022/07/09 01:30:33;;;;;;;3.67;3.30;;;;;;;;;;5054899;28;20045;-84
2022/07/09 01:33:00;;;;;;;3.50;3.20;;;;;;;;;;5056590;28;20045;-84
2022/07/09 01:35:27;;;;;;;4.40;3.22;;;;;;;;;;5055014;28;20092;-84
2022/07/09 01:37:54;;;;;;;4.00;3.67;;;;;;;;;;5054888;28;20556;-84
2022/07/09 01:40:22;;;;;;;5.50;3.50;;;;;;;;;;5057024;28;20064;-84
2022/07/09 01:42:49;;;;;;;4.60;3.05;;;;;;;;;;5056873;28;20084;-84
2022/07/09 01:45:17;;;;;;;4.60;3.53;;;;;;;;;;5057735;28;20057;-84
2022/07/09 01:47:44;;;;;;;5.20;3.63;;;;;;;;;;5059806;28;20087;-85
2022/07/09 01:50:11;;;;;;;5.00;3.53;;;;;;;;;;5058348;28;20045;-84
2022/07/09 01:52:38;;;;;;;4.88;3.40;;;;;;;;;;5059287;28;20052;-84
2022/07/09 01:55:06;;;;;;;3.47;3.15;;;;;;;;;;5061275;28;20049;-85
2022/07/09 01:57:33;;;;;;;6.45;2.95;;;;;;;;;;5057605;28;20554;-84
2022/07/09 02:00:00;;;;;;;4.18;3.47;;;;;;;;;;5057749;28;20045;-84
2022/07/09 02:02:27;;;;;;;5.53;3.25;;;;;;;;;;5057116;28;20056;-84
2022/07/09 02:04:54;;;;;;;4.47;3.60;;;;;;;;;;5057266;28;20199;-85
2022/07/09 02:07:22;;;;;;;3.55;3.15;;;;;;;;;;5057649;28;20553;-84
2022/07/09 02:09:49;;;;;;;5.45;3.65;;;;;;;;;;5056050;28;20152;-84
2022/07/09 02:12:17;;;;;;;3.63;3.33;;;;;;;;;;5057060;28;20442;-84
2022/07/09 02:14:44;;;;;;;3.97;3.33;;;;;;;;;;5057063;28;20056;-84
2022/07/09 02:17:11;;;;;;;5.72;3.20;;;;;;;;;;5059369;28;20049;-84
2022/07/09 02:19:38;;;;;;;4.72;3.50;;;;;;;;;;5056757;28;20063;-85
2022/07/09 02:22:06;;;;;;;4.88;4.07;;;;;;;;;;5057491;28;20053;-84
2022/07/09 02:24:33;;;;;;;7.30;4.28;;;;;;;;;;5057640;28;20048;-84
2022/07/09 02:27:00;;;;;;;8.55;4.50;;;;;;;;;;5056678;28;20124;-84
2022/07/09 02:29:27;;;;;;;7.18;4.07;;;;;;;;;;5057122;28;20045;-84
2022/07/09 02:31:55;;;;;;;4.80;4.40;;;;;;;;;;5055963;28;20041;-84
2022/07/09 02:34:22;;;;;;;6.38;3.72;;;;;;;;;;5057182;28;20049;-84
2022/07/09 02:36:49;;;;;;;6.75;4.60;;;;;;;;;;5054376;28;20490;-84
2022/07/09 02:39:16;;;;;;;6.05;3.97;;;;;;;;;;5054644;28;20418;-84
2022/07/09 02:41:44;;;;;;;4.18;3.88;;;;;;;;;;5056405;28;20049;-84
2022/07/09 02:44:11;;;;;;;5.28;4.78;;;;;;;;;;5054800;28;20486;-84
2022/07/09 02:46:38;;;;;;;4.93;4.63;;;;;;;;;;5054783;28;20083;-84
2022/07/09 02:49:05;;;;;;;5.07;4.63;;;;;;;;;;5054305;28;20478;-84
2022/07/09 02:51:32;;;;;;;4.50;4.20;;;;;;;;;;5056194;28;20052;-84
2022/07/09 02:53:59;;;;;;;4.50;3.72;;;;;;;;;;5054209;28;20053;-84
2022/07/09 02:56:27;;;;;;;4.47;4.18;;;;;;;;;;5054119;28;20111;-84
2022/07/09 02:58:54;;;;;;;4.40;4.00;;;;;;;;;;5054722;28;20045;-83
2022/07/09 03:01:21;;;;;;;4.45;3.35;;;;;;;;;;5055050;28;20080;-84
2022/07/09 03:03:48;;;;;;;5.38;4.45;;;;;;;;;;5054885;28;20128;-84
2022/07/09 03:06:15;;;;;;;4.85;4.45;;;;;;;;;;5054173;28;20487;-84
2022/07/09 03:08:43;;;;;;;6.32;4.20;;;;;;;;;;5054433;28;20056;-84
2022/07/09 03:11:10;;;;;;;11.82;4.15;;;;;;;;;;5054793;28;20437;-84
2022/07/09 03:13:37;;;;;;;10.80;4.50;;;;;;;;;;5054427;28;20048;-84
2022/07/09 03:16:06;;;;;;;4.55;4.15;;;;;;;;;;5054802;28;20053;-84
2022/07/09 03:18:33;;;;;;;7.30;4.13;;;;;;;;;;5054192;28;20494;-84
2022/07/09 03:21:01;;;;;;;5.43;4.13;;;;;;;;;;5054180;28;20045;-84
2022/07/09 03:23:28;;;;;;;6.68;5.00;;;;;;;;;;5058768;28;20075;-84
2022/07/09 03:25:55;;;;;;;7.75;4.00;;;;;;;;;;5058340;28;20041;-84
2022/07/09 03:28:22;;;;;;;7.03;4.32;;;;;;;;;;5057757;28;20099;-84
2022/07/09 03:30:50;;;;;;;5.88;4.55;;;;;;;;;;5059841;28;20045;-84
2022/07/09 03:33:17;;;;;;;9.23;5.22;;;;;;;;;;5061072;28;20065;-84
2022/07/09 03:35:44;;;;;;;6.53;4.40;;;;;;;;;;5062304;28;20049;-84
2022/07/09 03:38:11;;;;;;;5.60;3.78;;;;;;;;;;5062385;28;20045;-84
2022/07/09 03:40:38;;;;;;;3.97;3.47;;;;;;;;;;5062147;28;20061;-84
2022/07/09 03:43:05;;;;;;;3.95;3.35;;;;;;;;;;5060877;28;20045;-84
2022/07/09 03:45:33;;;;;;;3.88;3.30;;;;;;;;;;5062081;28;20045;-83
2022/07/09 03:48:00;;;;;;;3.92;2.67;;;;;;;;;;5062655;28;20041;-84
2022/07/09 03:50:27;;;;;;;3.38;3.08;;;;;;;;;;5064483;28;20095;-84
2022/07/09 03:52:54;;;;;;;3.10;2.47;;;;;;;;;;5061342;28;20041;-83
2022/07/09 03:55:21;;;;;;;3.28;2.47;;;;;;;;;;5057085;28;20123;-84
2022/07/09 03:57:48;;;;;;;3.10;2.40;;;;;;;;;;5057593;28;20055;-83
2022/07/09 04:00:16;;;;;;;2.75;2.65;;;;;;;;;;5058887;28;20048;-83
2022/07/09 04:02:43;;;;;;;3.90;2.53;;;;;;;;;;5048870;28;20576;-84
2022/07/09 04:05:11;;;;;;;3.03;2.83;;;;;;;;;;5057814;28;20045;-84
2022/07/09 04:07:39;;;;;;;4.93;4.03;;;;;;;;;;5058496;28;20076;-84
2022/07/09 04:10:07;;;;;;;4.18;2.47;;;;;;;;;;5058933;28;20359;-83
2022/07/09 04:12:34;;;;;;;2.17;1.92;;;;;;;;;;5058239;28;20490;-84
2022/07/09 04:15:01;;;;;;;2.80;2.03;;;;;;;;;;5057863;28;20081;-84
2022/07/09 04:17:28;;;;;;;2.85;2.60;;;;;;;;;;5058763;28;20057;-84
2022/07/09 04:19:55;;;;;;;5.55;2.30;;;;;;;;;;5059742;28;20049;-83
2022/07/09 04:22:22;;;;;;;3.80;2.40;;;;;;;;;;5060111;28;20052;-83
2022/07/09 04:24:55;;;;;;;5.57;2.20;;;;;;;;;;5057942;28;20076;-82
2022/07/09 04:27:22;;;;;;;10.90;2.60;;;;;;;;;;5058798;28;20414;-84
2022/07/09 04:29:54;;;;;;;10.02;2.65;;;;;;;;;;5058026;28;20068;-84
2022/07/09 04:32:21;;;;;;;5.22;2.30;;;;;;;;;;5057679;28;20053;-84
2022/07/09 04:34:48;;;;;;;5.97;2.50;;;;;;;;;;5057208;28;20045;-84
2022/07/09 04:37:15;;;;;;;6.20;1.90;;;;;;;;;;5057455;28;20088;-84
2022/07/09 04:39:42;;;;;;;4.70;2.42;;;;;;;;;;5057142;28;20107;-83
2022/07/09 04:42:12;;;;;;;3.88;2.70;;;;;;;;;;5056826;28;20048;-84
2022/07/09 04:44:41;;;;;;;2.60;2.40;;;;;;;;;;5057851;28;20041;-84
2022/07/09 04:47:09;;;;;;;2.38;1.73;;;;;;;;;;5057230;28;20045;-83
2022/07/09 04:49:37;;;;;;;2.45;2.25;;;;;;;;;;5055728;28;20064;-84
2022/07/09 04:52:05;;;;;;;2.17;1.90;;;;;;;;;;5057571;28;20151;-83
2022/07/09 04:54:32;;;;;;;1.63;1.52;;;;;;;;;;5055892;28;20107;-84
2022/07/09 04:56:59;;;;;;;2.22;2.00;;;;;;;;;;5054809;28;20099;-83
2022/07/09 04:59:26;;;;;;;1.65;1.48;;;;;;;;;;5054648;28;20103;-83
2022/07/09 05:01:54;;;;;;;4.40;1.58;;;;;;;;;;5055635;28;20059;-84
2022/07/09 05:04:24;;;;;;;4.25;1.77;;;;;;;;;;5056176;28;20045;-83
2022/07/09 05:06:53;;;;;;;3.05;1.30;;;;;;;;;;5055082;28;20483;-84
2022/07/09 05:09:20;;;;;;;2.08;1.27;;;;;;;;;;5054476;28;20048;-83
2022/07/09 05:11:48;;;;;;;2.67;1.58;;;;;;;;;;5054848;28;20052;-83
2022/07/09 05:14:15;;;;;;;1.20;1.10;;;;;;;;;;5054638;28;20057;-83
2022/07/09 05:16:44;;;;;;;1.05;1.02;;;;;;;;;;5056039;28;20088;-84
2022/07/09 05:19:12;;;;;;;1.70;1.42;;;;;;;;;;5056144;28;20517;-84
2022/07/09 05:21:40;;;;;;;3.88;1.30;;;;;;;;;;5056313;28;20111;-84
2022/07/09 05:24:08;;;;;;;4.22;1.42;;;;;;;;;;5056070;28;20076;-83
2022/07/09 05:26:35;;;;;;;6.32;1.50;;;;;;;;;;5057150;28;20041;-83
2022/07/09 05:29:05;;;;;;;5.25;1.50;;;;;;;;;;5056902;28;20072;-84
2022/07/09 05:31:33;;;;;;;2.65;1.30;;;;;;;;;;5057887;28;20049;-83
2022/07/09 05:34:02;;;;;;;3.40;1.20;;;;;;;;;;5057884;28;20128;-84
2022/07/09 05:36:30;;;;;;;2.50;1.00;;;;;;;;;;5058013;28;20064;-84
2022/07/09 05:38:58;;;;;;;4.45;1.00;;;;;;;;;;5056899;28;20052;-84
2022/07/09 05:41:25;;;;;;;3.15;0.98;;;;;;;;;;5056384;28;20045;-83
2022/07/09 05:43:53;;;;;;;2.75;1.20;;;;;;;;;;5056650;28;20045;-84
2022/07/09 05:46:21;;;;;;;4.03;1.55;;;;;;;;;;5056173;28;20120;-84
2022/07/09 05:48:48;;;;;;;1.95;1.10;;;;;;;;;;5057197;28;20045;-84
2022/07/09 05:51:16;;;;;;;8.38;1.33;;;;;;;;;;5057056;28;20119;-84
2022/07/09 05:53:43;;;;;;;3.15;1.25;;;;;;;;;;5059762;28;20053;-84
2022/07/09 05:56:10;;;;;;;16.90;2.35;;;;;;;;;;5058598;28;20131;-83
2022/07/09 05:58:40;;;;;;;5.82;1.85;;;;;;;;;;5057075;28;20056;-83
2022/07/09 06:01:07;;;;;;;6.85;1.25;;;;;;;;;;5056544;28;20128;-84
2022/07/09 06:03:35;;;;;;;6.82;1.20;;;;;;;;;;5054507;28;20075;-83
2022/07/09 06:06:02;;;;;;;8.25;1.80;;;;;;;;;;5053616;28;20065;-82
2022/07/09 06:08:29;;;;;;;2.42;1.40;;;;;;;;;;5054944;28;20470;-82
2022/07/09 06:10:56;;;;;;;6.03;1.50;;;;;;;;;;5053518;28;20064;-82
2022/07/09 06:13:23;;;;;;;4.72;1.42;;;;;;;;;;5053901;28;20045;-82
2022/07/09 06:15:51;;;;;;;4.82;1.55;;;;;;;;;;5054911;28;20410;-82
2022/07/09 06:18:18;;;;;;;3.90;1.48;;;;;;;;;;5053917;28;20119;-82
2022/07/09 06:20:46;;;;;;;2.45;1.23;;;;;;;;;;5053275;28;20466;-83
2022/07/09 06:23:13;;;;;;;6.72;1.95;;;;;;;;;;5053429;28;20048;-83
2022/07/09 06:25:40;;;;;;;5.07;1.60;;;;;;;;;;5054015;28;20072;-81
2022/07/09 06:28:08;;;;;;;6.13;1.33;;;;;;;;;;5053191;28;20052;-82
2022/07/09 06:30:35;;;;;;;9.07;1.65;;;;;;;;;;5052602;28;20072;-82
2022/07/09 06:33:03;;;;;;;4.20;1.42;;;;;;;;;;5052860;28;20068;-83
2022/07/09 06:35:30;;;;;;;6.38;1.63;;;;;;;;;;5052784;28;20179;-82
2022/07/09 06:37:58;;;;;;;3.03;1.42;;;;;;;;;;5053465;28;20057;-83
2022/07/09 06:40:25;;;;;;;6.53;1.70;;;;;;;;;;5053240;28;20056;-83
2022/07/09 06:42:53;;;;;;;4.85;2.17;;;;;;;;;;5052814;28;20513;-82
2022/07/09 06:45:20;;;;;;;7.38;2.00;;;;;;;;;;5052790;28;20072;-82
2022/07/09 06:47:47;;;;;;;4.65;1.60;;;;;;;;;;5053166;28;20061;-83
2022/07/09 06:50:15;;;;;;;6.28;1.60;;;;;;;;;;5053290;28;20049;-82
2022/07/09 06:52:42;;;;;;;8.77;2.20;;;;;;;;;;5054421;28;20049;-83
2022/07/09 06:55:10;;;;;;;7.70;1.90;;;;;;;;;;5055022;28;20053;-83
2022/07/09 06:57:38;;;;;;;4.43;1.73;;;;;;;;;;5054575;28;20406;-82
2022/07/09 07:00:06;;;;;;;5.80;2.20;;;;;;;;;;5054905;28;20088;-83
2022/07/09 07:02:33;;;;;;;4.80;2.30;;;;;;;;;;5053008;28;20131;-81
2022/07/09 07:05:00;;;;;;;9.32;1.70;;;;;;;;;;5053220;28;20052;-81
2022/07/09 07:07:27;;;;;;;5.53;1.50;;;;;;;;;;5053421;28;20128;-82
2022/07/09 07:09:54;;;;;;;8.60;1.55;;;;;;;;;;5054388;28;20045;-82
2022/07/09 07:12:21;;;;;;;9.13;1.77;;;;;;;;;;5053884;28;20049;-81
2022/07/09 07:14:50;;;;;;;12.20;1.95;;;;;;;;;;5053298;28;20061;-82
2022/07/09 07:17:17;;;;;;;6.63;1.40;;;;;;;;;;5054367;28;20048;-82
2022/07/09 07:19:44;;;;;;;8.23;1.88;;;;;;;;;;5052667;28;20053;-82
2022/07/09 07:22:12;;;;;;;8.40;1.92;;;;;;;;;;5053381;28;20463;-82
2022/07/09 07:24:39;;;;;;;7.25;1.70;;;;;;;;;;5053168;28;20053;-83
2022/07/09 07:27:06;;;;;;;12.82;2.03;;;;;;;;;;5053126;28;20095;-81
2022/07/09 07:29:33;;;;;;;9.00;1.63;;;;;;;;;;5052869;28;20045;-83
2022/07/09 07:32:00;;;;;;;8.32;1.70;;;;;;;;;;5052900;28;20056;-82
2022/07/09 07:34:28;;;;;;;5.50;1.55;;;;;;;;;;5054395;28;20045;-83
2022/07/09 07:36:55;;;;;;;6.32;1.85;;;;;;;;;;5054435;28;20049;-83
2022/07/09 07:39:24;;;;;;;4.10;1.50;;;;;;;;;;5052664;28;20052;-83
2022/07/09 07:41:52;;;;;;;3.95;1.40;;;;;;;;;;5053079;28;20490;-82
2022/07/09 07:44:19;;;;;;;8.40;1.60;;;;;;;;;;5052720;28;20502;-82
2022/07/09 07:46:46;;;;;;;5.03;1.25;;;;;;;;;;5053014;28;20561;-83
2022/07/09 07:49:13;;;;;;;4.18;1.23;;;;;;;;;;5053011;28;20465;-83
2022/07/09 07:51:42;;;;;;;2.83;1.20;;;;;;;;;;5053749;28;20045;-82
2022/07/09 07:54:09;;;;;;;4.57;1.40;;;;;;;;;;5052915;28;20056;-82
2022/07/09 07:56:39;;;;;;;1.42;1.20;;;;;;;;;;5053669;28;20562;-83
2022/07/09 07:59:06;;;;;;;2.03;1.42;;;;;;;;;;5053003;28;20061;-83
2022/07/09 08:01:33;;;;;;;2.25;1.13;;;;;;;;;;5053369;28;20049;-82
2022/07/09 08:04:01;;;;;;;4.72;1.63;;;;;;;;;;5054136;28;20107;-82
2022/07/09 08:06:28;;;;;;;4.25;1.60;;;;;;;;;;5053610;28;20140;-83
2022/07/09 08:08:55;;;;;;;5.15;1.40;;;;;;;;;;5053583;28;20132;-83
2022/07/09 08:11:22;;;;;;;2.65;1.30;;;;;;;;;;5056509;28;20095;-82
2022/07/09 08:13:50;;;;;;;2.78;1.40;;;;;;;;;;5057061;28;20087;-82
2022/07/09 08:16:18;;;;;;;1.70;1.60;;;;;;;;;;5056733;28;20457;-82
2022/07/09 08:18:46;;;;;;;2.78;1.60;;;;;;;;;;5056374;28;20412;-82
2022/07/09 08:21:14;;;;;;;13.88;1.77;;;;;;;;;;5057171;28;20095;-82
2022/07/09 08:23:56;;;;;;;6.22;1.40;;;;;;;;;;5056058;28;20088;-82
2022/07/09 08:26:25;;;;;;;3.10;1.52;;;;;;;;;;5057614;28;20045;-82
2022/07/09 08:28:52;;;;;;;37.92;4.75;;;;;;;;;;5056694;28;20049;-82
2022/07/09 08:31:20;;;;;;;4.90;1.77;;;;;;;;;;5056803;28;20048;-83
2022/07/09 08:33:47;;;;;;;1.30;1.17;;;;;;;;;;5055955;28;20072;-83
2022/07/09 08:36:14;;;;;;;2.47;1.50;;;;;;;;;;5056053;28;20049;-83
2022/07/09 08:38:42;;;;;;;1.73;1.50;;;;;;;;;;5055758;28;20048;-81
2022/07/09 08:41:09;;;;;;;5.03;0.98;;;;;;;;;;5057106;28;20057;-82
2022/07/09 08:43:38;;;;;;;1.48;1.10;;;;;;;;;;5057313;28;20052;-82
2022/07/09 08:46:06;;;;;;;2.25;0.85;;;;;;;;;;5056482;28;20072;-83
2022/07/09 08:48:34;;;;;;;4.00;1.30;;;;;;;;;;5058030;28;20041;-83
2022/07/09 08:51:02;;;;;;;6.22;1.45;;;;;;;;;;5056342;28;20095;-83
2022/07/09 08:53:30;;;;;;;1.23;0.50;;;;;;;;;;5056803;28;20045;-84
2022/07/09 08:55:58;;;;;;;2.35;0.80;;;;;;;;;;5057234;28;20095;-83
2022/07/09 08:58:25;;;;;;;0.98;0.47;;;;;;;;;;5057413;28;20053;-84
2022/07/09 09:00:52;;;;;;;1.20;0.70;;;;;;;;;;5056911;28;20057;-83
2022/07/09 09:03:20;;;;;;;1.20;0.70;;;;;;;;;;5056130;28;20049;-83
2022/07/09 09:06:00;;;;;;;3.17;0.93;;;;;;;;;;5057848;28;20059;-83
2022/07/09 09:08:27;;;;;;;1.55;0.93;;;;;;;;;;5056448;28;20114;-83
2022/07/09 09:10:55;;;;;;;2.13;0.85;;;;;;;;;;5056207;28;20076;-83
2022/07/09 09:13:22;;;;;;;26.60;3.30;;;;;;;;;;5057991;28;20045;-84
2022/07/09 09:15:49;;;;;;;4.93;0.80;;;;;;;;;;5055980;28;20053;-84
2022/07/09 09:18:17;;;;;;;1.92;1.00;;;;;;;;;;5056019;28;20045;-84
2022/07/09 09:20:47;;;;;;;3.30;1.02;;;;;;;;;;5055848;28;20056;-84
2022/07/09 09:23:17;;;;;;;4.47;1.23;;;;;;;;;;5055909;28;20466;-85
2022/07/09 09:25:44;;;;;;;3.03;1.30;;;;;;;;;;5056031;28;20045;-84
2022/07/09 09:28:15;;;;;;;1.63;1.00;;;;;;;;;;5056226;28;20072;-84
2022/07/09 09:30:43;;;;;;;1.85;1.23;;;;;;;;;;5057285;28;20044;-85
2022/07/09 09:33:14;;;;;;;2.55;1.60;;;;;;;;;;5056953;28;20049;-84
2022/07/09 09:35:45;;;;;;;29.55;3.22;;;;;;;;;;5056545;28;20053;-85
2022/07/09 09:38:12;;;;;;;5.05;1.65;;;;;;;;;;5056945;28;20548;-85
2022/07/09 09:40:45;;;;;;;4.45;1.48;;;;;;;;;;5057179;28;20088;-85
2022/07/09 09:43:14;;;;;;;3.08;2.38;;;;;;;;;;5059460;28;20304;-84
2022/07/09 09:45:41;;;;;;;5.20;2.22;;;;;;;;;;5057749;28;20052;-85
2022/07/09 09:48:08;;;;;;;6.82;5.00;;;;;;;;;;5056752;28;20091;-84
2022/07/09 09:50:36;;;;;;;10.32;5.68;;;;;;;;;;5058744;28;20072;-84
2022/07/09 09:53:07;;;;;;;10.35;5.50;;;;;;;;;;5058064;28;20099;-84
2022/07/09 09:55:34;;;;;;;5.88;4.28;;;;;;;;;;5057549;28;20045;-84
2022/07/09 09:58:02;;;;;;;4.40;2.67;;;;;;;;;;5057855;28;20045;-84
2022/07/09 10:00:29;;;;;;;6.47;1.70;;;;;;;;;;5058345;28;20049;-83
2022/07/09 10:02:56;;;;;;;1.98;1.30;;;;;;;;;;5055892;28;20122;-82
2022/07/09 10:05:23;;;;;;;1.10;1.00;;;;;;;;;;5055699;28;20045;-83
2022/07/09 10:07:51;;;;;;;1.98;1.17;;;;;;;;;;5057619;28;20457;-85
2022/07/09 10:10:20;;;;;;;1.10;1.00;;;;;;;;;;5055088;28;20045;-83
2022/07/09 10:12:48;;;;;;;2.30;1.17;;;;;;;;;;5055137;28;20044;-84
2022/07/09 10:15:26;;;;;;;2.50;0.70;;;;;;;;;;5054481;28;20045;-84
2022/07/09 10:17:54;;;;;;;0.70;0.70;;;;;;;;;;5055007;28;20067;-85
2022/07/09 10:20:33;;;;;;;1.98;1.00;;;;;;;;;;5056554;28;20045;-84
2022/07/09 10:23:01;;;;;;;1.63;0.90;;;;;;;;;;5057183;28;20041;-84
2022/07/09 10:25:29;;;;;;;3.63;1.00;;;;;;;;;;5056817;28;20076;-84
2022/07/09 10:27:57;;;;;;;5.53;1.10;;;;;;;;;;5055299;28;20044;-83
2022/07/09 10:30:24;;;;;;;3.72;1.10;;;;;;;;;;5055339;28;20056;-84
2022/07/09 10:33:24;;;;;;;1.50;0.80;;;;;;;;;;5055052;28;20045;-82
2022/07/09 10:35:52;;;;;;;2.17;1.20;;;;;;;;;;5006792;28;20060;-83
2022/07/09 10:38:22;;;;;;;2.95;1.10;;;;;;;;;;5054684;28;20057;-82
2022/07/09 10:40:56;;;;;;;1.00;0.60;;;;;;;;;;5054549;28;20077;-83
2022/07/09 10:44:02;;;;;;;2.13;0.93;;;;;;;;;;5055257;28;20056;-81
2022/07/09 10:46:30;;;;;;;1.40;0.80;;;;;;;;;;4974029;28;20090;-82
2022/07/09 10:48:59;;;;;;;0.60;0.60;;;;;;;;;;4974205;28;20051;-82
2022/07/09 10:51:27;;;;;;;1.60;0.70;;;;;;;;;;5007569;28;20111;-82
2022/07/09 10:53:54;;;;;;;3.72;0.90;;;;;;;;;;5053225;28;20045;-83
2022/07/09 10:56:22;;;;;;;2.10;0.50;;;;;;;;;;5053383;28;20053;-82
2022/07/09 10:58:49;;;;;;;2.10;0.73;;;;;;;;;;5053484;28;20127;-81
2022/07/09 11:01:27;;;;;;;1.50;0.77;;;;;;;;;;5055521;28;20049;-85
2022/07/09 11:03:55;;;;;;;1.27;0.65;;;;;;;;;;5053435;28;20457;-83
2022/07/09 11:06:22;;;;;;;1.48;0.70;;;;;;;;;;5053545;28;20049;-83
2022/07/09 11:08:52;;;;;;;1.60;0.40;;;;;;;;;;5055277;28;20548;-82
2022/07/09 11:11:22;;;;;;;1.13;0.70;;;;;;;;;;5052771;28;20045;-81
2022/07/09 11:13:50;;;;;;;1.13;0.60;;;;;;;;;;5054447;28;20075;-84
2022/07/09 11:16:22;;;;;;;0.93;0.50;;;;;;;;;;5053774;28;20076;-82
2022/07/09 11:18:49;;;;;;;1.55;0.60;;;;;;;;;;5053204;28;20053;-82
2022/07/09 11:21:22;;;;;;;0.43;0.43;;;;;;;;;;5055259;28;20060;-83
2022/07/09 11:23:49;;;;;;;1.45;0.50;;;;;;;;;;5053759;28;20060;-82
2022/07/09 11:26:16;;;;;;;0.70;0.60;;;;;;;;;;5053000;28;20068;-82
2022/07/09 11:28:45;;;;;;;2.00;0.55;;;;;;;;;;5054344;28;20449;-83
2022/07/09 11:31:13;;;;;;;1.08;0.63;;;;;;;;;;5056064;28;20044;-85
2022/07/09 11:36:35;;;;;;;2.45;0.80;;;;;;;;;;5055374;28;20080;-84
2022/07/09 11:39:02;;;;;;;0.68;0.50;;;;;;;;;;5055217;28;20052;-81
2022/07/09 11:41:40;;;;;;;1.30;0.70;;;;;;;;;;5053147;28;20048;-81
2022/07/09 11:44:07;;;;;;;1.20;0.70;;;;;;;;;;5056890;28;20100;-81
2022/07/09 11:46:35;;;;;;;0.50;0.50;;;;;;;;;;5058462;28;20052;-83
2022/07/09 11:49:16;;;;;;;1.17;0.47;;;;;;;;;;5057474;28;20049;-82
2022/07/09 11:51:43;;;;;;;0.50;0.50;;;;;;;;;;5057569;28;20045;-82
2022/07/09 11:54:10;;;;;;;0.75;0.50;;;;;;;;;;5049828;28;20080;-83
2022/07/09 11:56:45;;;;;;;0.65;0.45;;;;;;;;;;5058699;28;20041;-83
2022/07/09 11:59:13;;;;;;;1.05;0.50;;;;;;;;;;5039953;28;20052;-83
2022/07/09 12:01:40;;;;;;;0.88;0.57;;;;;;;;;;5040289;28;20099;-83
2022/07/09 12:04:18;;;;;;;2.35;0.70;;;;;;;;;;5058440;28;20049;-83
2022/07/09 12:06:49;;;;;;;1.10;0.60;;;;;;;;;;5040537;28;20537;-82
2022/07/09 12:09:27;;;;;;;0.93;0.40;;;;;;;;;;5058062;28;20052;-84
2022/07/09 12:11:54;;;;;;;0.93;0.70;;;;;;;;;;5029794;28;20561;-82
2022/07/09 12:14:21;;;;;;;1.08;0.50;;;;;;;;;;5021084;28;20491;-83
2022/07/09 12:16:48;;;;;;;0.77;0.55;;;;;;;;;;5021697;28;20045;-83
2022/07/09 12:19:15;;;;;;;0.85;0.52;;;;;;;;;;5038783;28;20049;-83
2022/07/09 12:21:42;;;;;;;0.95;0.60;;;;;;;;;;5039870;28;20045;-84
2022/07/09 12:24:09;;;;;;;0.60;0.60;;;;;;;;;;5040814;28;20053;-83
2022/07/09 12:26:37;;;;;;;0.40;0.40;;;;;;;;;;5039907;28;20072;-82
2022/07/09 12:29:24;;;;;;;0.50;0.50;;;;;;;;;;5041454;28;20520;-82
2022/07/09 12:31:52;;;;;;;1.10;0.50;;;;;;;;;;5039552;28;20474;-83
2022/07/09 12:34:19;;;;;;;0.93;0.80;;;;;;;;;;5039199;28;20044;-82
2022/07/09 12:36:46;;;;;;;1.70;0.90;;;;;;;;;;5039092;28;20076;-82
2022/07/09 12:39:25;;;;;;;1.15;0.73;;;;;;;;;;5035712;28;20073;-81
2022/07/09 12:41:52;;;;;;;2.20;0.80;;;;;;;;;;5050988;28;20111;-83
2022/07/09 12:44:19;;;;;;;0.93;0.90;;;;;;;;;;5058633;28;20050;-83
2022/07/09 12:46:46;;;;;;;1.55;0.90;;;;;;;;;;5039371;28;20049;-83
2022/07/09 12:49:14;;;;;;;0.82;0.70;;;;;;;;;;5039166;28;20053;-82
2022/07/09 12:51:41;;;;;;;3.28;1.00;;;;;;;;;;5039821;28;20459;-82
2022/07/09 12:54:08;;;;;;;1.63;0.73;;;;;;;;;;5038378;28;20053;-83
2022/07/09 12:56:36;;;;;;;0.77;0.68;;;;;;;;;;5038064;28;20072;-82
2022/07/09 12:59:24;;;;;;;0.70;0.55;;;;;;;;;;5041386;28;20064;-84
2022/07/09 13:01:52;;;;;;;0.95;0.60;;;;;;;;;;5029528;28;20471;-83
2022/07/09 13:04:19;;;;;;;0.50;0.50;;;;;;;;;;5056269;28;20048;-83
2022/07/09 13:06:47;;;;;;;0.90;0.60;;;;;;;;;;5037955;28;20140;-83
2022/07/09 13:09:14;;;;;;;4.35;0.85;;;;;;;;;;5037492;28;20561;-83
2022/07/09 13:11:41;;;;;;;0.75;0.50;;;;;;;;;;5037949;28;20077;-84
2022/07/09 13:14:09;;;;;;;1.05;0.68;;;;;;;;;;5038170;28;20044;-83
2022/07/09 13:16:36;;;;;;;0.55;0.40;;;;;;;;;;5037942;28;20103;-83
2022/07/09 13:19:04;;;;;;;0.85;0.55;;;;;;;;;;5039854;28;20053;-84
2022/07/09 13:21:31;;;;;;;0.80;0.40;;;;;;;;;;5038143;28;20156;-84
2022/07/09 13:23:58;;;;;;;1.98;0.80;;;;;;;;;;5037976;28;20045;-82
2022/07/09 13:26:26;;;;;;;0.55;0.55;;;;;;;;;;5038125;28;20418;-84
2022/07/09 13:28:53;;;;;;;0.98;0.55;;;;;;;;;;5039986;28;20045;-84
2022/07/09 13:31:21;;;;;;;0.95;0.60;;;;;;;;;;5038786;28;20491;-83
2022/07/09 13:33:49;;;;;;;1.23;0.60;;;;;;;;;;5056186;28;20072;-84
2022/07/09 13:36:16;;;;;;;0.45;0.45;;;;;;;;;;5038301;28;20053;-84
2022/07/09 13:38:43;;;;;;;2.05;0.50;;;;;;;;;;5038902;28;20049;-84
2022/07/09 13:41:10;;;;;;;0.50;0.50;;;;;;;;;;5039800;28;20234;-85
2022/07/09 13:43:37;;;;;;;0.73;0.63;;;;;;;;;;5040777;28;20103;-84
2022/07/09 13:46:11;;;;;;;1.55;0.60;;;;;;;;;;5040870;28;20063;-84
2022/07/09 13:48:39;;;;;;;0.60;0.55;;;;;;;;;;5039646;28;20409;-83
2022/07/09 13:51:06;;;;;;;0.85;0.60;;;;;;;;;;5039570;28;20080;-84
2022/07/09 13:53:33;;;;;;;0.50;0.50;;;;;;;;;;5041808;28;20053;-85
2022/07/09 13:56:01;;;;;;;0.80;0.80;;;;;;;;;;5039037;28;20063;-84
2022/07/09 13:58:29;;;;;;;1.05;0.80;;;;;;;;;;5042482;28;20052;-87
2022/07/09 14:00:56;;;;;;;6.68;1.50;;;;;;;;;;5057472;28;20498;-86
2022/07/09 14:03:23;;;;;;;8.32;1.58;;;;;;;;;;5038230;28;20076;-88
2022/07/09 14:05:50;;;;;;;6.03;1.50;;;;;;;;;;5041051;28;20049;-88
2022/07/09 14:08:18;;;;;;;2.97;1.40;;;;;;;;;;5039240;28;20422;-88
2022/07/09 14:10:51;;;;;;;2.30;1.25;;;;;;;;;;5041629;28;20414;-87
2022/07/09 14:13:19;;;;;;;2.78;1.50;;;;;;;;;;5053632;28;20059;-87
2022/07/09 14:15:46;;;;;;;1.70;1.10;;;;;;;;;;5055918;28;20074;-88
2022/07/09 14:18:13;;;;;;;6.80;2.13;;;;;;;;;;5055048;28;20033;-86
2022/07/09 14:20:40;;;;;;;1.50;1.40;;;;;;;;;;5056310;28;20061;-86
2022/07/09 14:23:07;;;;;;;7.70;1.40;;;;;;;;;;5073371;28;20080;-87
2022/07/09 14:25:35;;;;;;;4.50;1.40;;;;;;;;;;5052475;28;20067;-87
2022/07/09 14:28:02;;;;;;;1.13;1.13;;;;;;;;;;5049942;28;20053;-88
2022/07/09 14:30:29;;;;;;;1.95;1.33;;;;;;;;;;5048843;28;20040;-87
2022/07/09 14:32:56;;;;;;;2.45;1.17;;;;;;;;;;5074943;28;20035;-87
2022/07/09 14:35:27;;;;;;;1.40;1.30;;;;;;;;;;5057760;28;20063;-87
2022/07/09 14:37:54;;;;;;;1.40;1.38;;;;;;;;;;5056422;28;20049;-88
2022/07/09 14:40:22;;;;;;;1.42;1.33;;;;;;;;;;5057575;28;20059;-87
2022/07/09 14:42:49;;;;;;;2.22;1.38;;;;;;;;;;5075889;28;20048;-85
2022/07/09 14:45:18;;;;;;;1.48;1.38;;;;;;;;;;5055813;28;20049;-87
2022/07/09 14:47:45;;;;;;;1.80;1.70;;;;;;;;;;5048741;28;20049;-88
2022/07/09 14:50:14;;;;;;;1.90;1.27;;;;;;;;;;5061259;28;20045;-87
2022/07/09 14:52:45;;;;;;;1.67;1.40;;;;;;;;;;5044694;28;20552;-88